Maldives Meteorological Service

METAR

Station
VRMM
METAR VRMM 242300Z 24009KT 9999 -SHRA FEW017TCU BKN110 28/24 Q1010 TEMPO 5000 -SHRA=
VRMH
METAR VRMH 242300Z 25005KT 9999 SCT018TCU BKN260 26/25 Q1010=
VRMK
METAR VRMK 242300Z 24005KT 9999 FEW018TCU SCT130 BKN270 27/25 Q1010=
VRMT
METAR VRMT 242300Z 28006KT 9999 FEW018TCU BKN270 28/24 Q1010=
VRMG
METAR VRMG 242300Z 29007KT 9999 SCT018TCU BKN260 27/24 Q1010 TEMPO 5000 –SHRA=
Last Updated : 2018-09-25 04:00:45

SPECI

Station
VRMM
VRMH
VRMK
VRMT
VRMG
Last Updated : 2018-09-25 04:00:45